Fort Myer, Virginia
Current Conditions -  °F | °C
As of 4:52 PM on Thursday 27 Nov 2014 (Local Time) from KDCA Reporting Station
Broken Clouds Broken Clouds  
Wind Chill:   Ceiling: 6500
Heat Index:   Visibility: 10mi
Dew Point: -3°   Wind: 12mph
Humidity: 49%   Direction: 310°NW
Pressure: 30.1"   Gusts: 23mph
Location:  38.88°N, 77.08°W
Report Text: KDCA 272152Z 31010G20KT 10SM SCT050 BKN065 07/M03 A3010 RMK AO2 SLP192 T00671033
Loading
Personal Weather Stations






























Interactive Weather Map New forecast layout! Learn more

10-Day Weather Forecast

Advertisements
Track Severe Weather on mobile